Main page
METAR-TAF:

METAR-TAF

Airports :

Corfu International Airport

Corfu, Greece

latitude: 39-37N, longitude: 019-55E, elevation: 2 m

Current weather observation

The report was made 36 minutes ago, at 08:50 UTC
Wind 5 kt from the South
Temperature 24°C
Humidity 61%
Pressure 1018 hPa
Visibility 10 km or more
Few clouds at a height of 3500 ft

METAR: LGKR 150850Z 17005KT 9999 FEW035 24/16 Q1018 NOSIG

Time: 12:26 (09:26 UTC)

Forecast

The report was made 4 hours and 26 minutes ago, at 05:00 UTC
Forecast valid from 15 at 06 UTC to 16 at 06 UTC
Wind 8 kt from the East/Southeast
Visibility 10 km or more
Few clouds at a height of 2000 ft
Becoming
from 15 at 10 UTC to 15 at 12 UTC
Wind 10 kt from the South/Southwest
Becoming
from 15 at 18 UTC to 15 at 20 UTC
Wind 3 kt from variable directions

TAF: LGKR 150500Z 1506/1606 12008KT 9999 FEW020 BECMG 1510/1512 20010KT BECMG 1518/1520 VRB03KT

Weather observations and forecasts of more than 4000 airports (METAR and TAF reports).

The available stations are represented by yellow and red dots on the map.

Hover mouse over dot to see the name of the station.

Then click to see weather observations and forecasts.

To change the map : click on the green buttons with a black cross to zoom in, on the green button with a dash to zoom out, or on the green arrows for adjacent maps.


METAR-TAF: